createdAt,value
2018-02-19T00:01:40.654Z,64.74
2018-02-19T00:04:43.139Z,65.00
2018-02-19T00:07:45.113Z,64.48
2018-02-19T00:10:47.051Z,64.40
2018-02-19T00:13:49.029Z,64.49
2018-02-19T00:16:50.970Z,64.46
2018-02-19T00:19:52.960Z,64.37
2018-02-19T00:22:54.950Z,64.70
2018-02-19T00:25:56.916Z,64.63
2018-02-19T00:28:59.067Z,64.48
2018-02-19T00:32:01.023Z,64.54
2018-02-19T00:35:03.017Z,64.90
2018-02-19T00:38:04.976Z,65.02
2018-02-19T00:41:06.943Z,65.33
2018-02-19T00:44:08.906Z,65.13
2018-02-19T00:47:10.850Z,65.19
2018-02-19T00:50:12.831Z,65.13
2018-02-19T00:53:14.813Z,64.69
2018-02-19T00:56:16.778Z,64.65
2018-02-19T00:59:18.755Z,65.18
2018-02-19T01:02:20.691Z,65.34
2018-02-19T01:05:22.725Z,65.53
2018-02-19T01:08:24.750Z,65.47
2018-02-19T01:11:26.699Z,65.86
2018-02-19T01:14:28.682Z,65.87
2018-02-19T01:17:30.632Z,65.34
2018-02-19T01:20:32.586Z,65.56
2018-02-19T01:23:34.578Z,65.90
2018-02-19T01:26:36.511Z,65.12
2018-02-19T01:29:38.506Z,65.25
2018-02-19T01:32:40.494Z,64.58
2018-02-19T01:35:42.518Z,64.55
2018-02-19T01:38:44.486Z,65.07
2018-02-19T01:41:46.466Z,65.00
2018-02-19T01:44:48.448Z,65.42
2018-02-19T01:47:50.415Z,65.93
2018-02-19T01:50:52.369Z,65.63
2018-02-19T01:53:54.425Z,65.51
2018-02-19T01:56:56.360Z,65.35
2018-02-19T01:59:58.355Z,65.39
2018-02-19T02:03:00.342Z,65.34
2018-02-19T02:06:02.308Z,65.67
2018-02-19T02:09:04.270Z,66.37
2018-02-19T02:12:06.237Z,66.62
2018-02-19T02:15:08.207Z,65.99
2018-02-19T02:18:10.177Z,66.00
2018-02-19T02:21:12.193Z,66.28
2018-02-19T02:24:14.085Z,66.07
2018-02-19T02:27:16.069Z,66.07
2018-02-19T02:30:18.030Z,66.31
2018-02-19T02:33:19.996Z,66.09
2018-02-19T02:36:21.967Z,65.54
2018-02-19T02:39:24.000Z,65.28
2018-02-19T02:42:25.999Z,65.49
2018-02-19T02:45:28.084Z,65.65
2018-02-19T02:48:30.025Z,65.43
2018-02-19T02:51:32.035Z,65.61
2018-02-19T02:54:34.071Z,65.66
2018-02-19T02:57:36.036Z,65.83
2018-02-19T03:00:38.027Z,65.71
2018-02-19T03:03:39.959Z,65.73
2018-02-19T03:06:42.004Z,65.99
2018-02-19T03:09:43.992Z,66.12
2018-02-19T03:12:46.030Z,66.30
2018-02-19T03:15:48.021Z,66.37
2018-02-19T03:18:50.026Z,66.92
2018-02-19T03:21:51.979Z,67.40
2018-02-19T03:24:53.997Z,67.35
2018-02-19T03:27:56.014Z,67.57
2018-02-19T03:30:57.975Z,67.90
2018-02-19T03:33:59.975Z,68.19
2018-02-19T03:37:02.037Z,68.59
2018-02-19T03:40:03.975Z,69.23
2018-02-19T03:43:06.162Z,69.10
2018-02-19T03:46:08.117Z,69.21
2018-02-19T03:49:10.084Z,69.63
2018-02-19T03:52:12.259Z,70.10
2018-02-19T03:55:14.219Z,70.30
2018-02-19T03:58:16.177Z,71.37
2018-02-19T04:01:18.144Z,71.53
2018-02-19T04:04:20.115Z,71.22
2018-02-19T04:07:22.084Z,70.34
2018-02-19T04:10:24.059Z,69.81
2018-02-19T04:13:26.007Z,70.24
2018-02-19T04:16:27.973Z,71.08
2018-02-19T04:19:29.967Z,71.27
2018-02-19T04:22:31.934Z,71.15
2018-02-19T04:25:33.854Z,71.35
2018-02-19T04:28:35.858Z,71.85
2018-02-19T04:31:37.830Z,71.11
2018-02-19T04:34:39.783Z,70.67
2018-02-19T04:37:41.791Z,71.36
2018-02-19T04:40:43.824Z,71.81
2018-02-19T04:43:45.811Z,71.47
2018-02-19T04:46:47.808Z,71.51
2018-02-19T04:49:49.827Z,71.55
2018-02-19T04:52:51.806Z,71.67
2018-02-19T04:55:53.943Z,71.74
2018-02-19T04:58:55.945Z,72.52
2018-02-19T05:01:57.897Z,72.55
2018-02-19T05:04:59.882Z,72.29
2018-02-19T05:08:02.038Z,72.30
2018-02-19T05:11:04.021Z,72.18
2018-02-19T05:14:05.980Z,71.96
2018-02-19T05:17:07.972Z,72.33
2018-02-19T05:20:10.001Z,72.54
2018-02-19T05:23:11.982Z,72.39
2018-02-19T05:26:13.920Z,72.29
2018-02-19T05:29:15.901Z,72.03
2018-02-19T05:32:17.873Z,72.25
2018-02-19T05:35:19.848Z,72.28
2018-02-19T05:38:21.775Z,72.60
2018-02-19T05:41:23.799Z,72.50
2018-02-19T05:44:25.847Z,72.57
2018-02-19T05:47:27.802Z,73.07
2018-02-19T05:50:29.765Z,73.23
2018-02-19T05:53:31.763Z,72.63
2018-02-19T05:56:33.815Z,72.50
2018-02-19T05:59:35.817Z,72.18
2018-02-19T06:02:37.716Z,72.14
2018-02-19T06:05:39.705Z,72.05
2018-02-19T06:08:41.662Z,71.72
2018-02-19T06:11:43.714Z,70.83
2018-02-19T06:14:45.674Z,70.74
2018-02-19T06:17:47.616Z,70.82
2018-02-19T06:20:49.622Z,71.26
2018-02-19T06:23:51.623Z,70.45
2018-02-19T06:26:53.587Z,70.08
2018-02-19T06:29:55.593Z,70.30
2018-02-19T06:32:57.621Z,70.30
2018-02-19T06:35:59.661Z,70.53
2018-02-19T06:39:01.756Z,70.88
2018-02-19T06:42:03.711Z,70.45
2018-02-19T06:45:05.689Z,69.95
2018-02-19T06:48:07.638Z,69.51
2018-02-19T06:51:09.754Z,69.64
2018-02-19T06:54:11.764Z,70.25
2018-02-19T06:57:13.733Z,70.04
2018-02-19T07:00:15.733Z,69.98
2018-02-19T07:03:17.660Z,69.76
2018-02-19T07:06:19.662Z,70.05
2018-02-19T07:09:21.617Z,70.43
2018-02-19T07:12:23.558Z,70.94
2018-02-19T07:15:25.672Z,70.52
2018-02-19T07:18:27.732Z,70.47
2018-02-19T07:21:29.702Z,70.39
2018-02-19T07:24:31.753Z,70.70
2018-02-19T07:27:33.720Z,69.91
2018-02-19T07:30:35.698Z,69.91
2018-02-19T07:33:37.667Z,70.14
2018-02-19T07:36:39.752Z,70.49
2018-02-19T07:39:41.812Z,70.03
2018-02-19T07:42:43.758Z,69.66
2018-02-19T07:45:45.770Z,69.91
2018-02-19T07:48:47.887Z,70.02
2018-02-19T07:51:49.947Z,69.49
2018-02-19T07:54:52.231Z,69.40
2018-02-19T07:57:54.195Z,68.97
2018-02-19T08:00:56.252Z,69.08
2018-02-19T08:03:58.230Z,69.22
2018-02-19T08:07:00.222Z,68.79
2018-02-19T08:10:02.141Z,68.52
2018-02-19T08:13:04.063Z,68.70
2018-02-19T08:16:06.092Z,68.62
2018-02-19T08:19:08.064Z,69.07
2018-02-19T08:22:10.130Z,68.71
2018-02-19T08:25:12.124Z,68.67
2018-02-19T08:28:14.159Z,68.56
2018-02-19T08:31:16.172Z,67.98
2018-02-19T08:34:18.211Z,67.95
2018-02-19T08:37:20.146Z,68.08
2018-02-19T08:40:22.089Z,67.63
2018-02-19T08:43:24.100Z,67.42
2018-02-19T08:46:26.203Z,67.15
2018-02-19T08:49:28.225Z,67.31
2018-02-19T08:52:30.187Z,67.56
2018-02-19T08:55:32.190Z,67.64
2018-02-19T08:58:34.231Z,67.45
2018-02-19T09:01:36.226Z,67.20
2018-02-19T09:04:38.166Z,67.56
2018-02-19T09:07:40.143Z,67.26
2018-02-19T09:10:42.206Z,67.33
2018-02-19T09:13:44.172Z,67.10
2018-02-19T09:16:46.155Z,66.34
2018-02-19T09:19:48.110Z,66.09
2018-02-19T09:22:50.085Z,66.13
2018-02-19T09:25:52.051Z,66.52
2018-02-19T09:28:54.054Z,66.29
2018-02-19T09:31:56.006Z,65.84
2018-02-19T09:34:58.041Z,65.95
2018-02-19T09:38:00.026Z,66.20
2018-02-19T09:41:01.962Z,66.41
2018-02-19T09:44:03.939Z,65.88
2018-02-19T09:47:05.870Z,65.63
2018-02-19T09:50:07.873Z,65.23
2018-02-19T09:53:09.815Z,64.71
2018-02-19T09:56:11.821Z,64.15
2018-02-19T09:59:13.769Z,64.69
2018-02-19T10:02:15.747Z,64.12
2018-02-19T10:05:17.692Z,64.63
2018-02-19T10:08:19.687Z,64.19
2018-02-19T10:11:21.636Z,64.61
2018-02-19T10:14:23.631Z,64.69
2018-02-19T10:17:25.599Z,64.42
2018-02-19T10:20:27.616Z,63.43
2018-02-19T10:23:29.610Z,63.28
2018-02-19T10:26:31.587Z,63.16
2018-02-19T10:29:33.522Z,62.85
2018-02-19T10:32:35.535Z,62.89
2018-02-19T10:35:37.557Z,62.88
2018-02-19T10:38:39.571Z,62.79
2018-02-19T10:41:41.523Z,62.28
2018-02-19T10:44:43.528Z,62.15
2018-02-19T10:47:45.418Z,62.63
2018-02-19T10:50:47.434Z,62.68
2018-02-19T10:53:49.462Z,62.45
2018-02-19T10:56:51.400Z,61.99
2018-02-19T10:59:53.408Z,62.19
2018-02-19T11:02:55.482Z,61.39
2018-02-19T11:05:57.432Z,60.69
2018-02-19T11:08:59.381Z,60.50
2018-02-19T11:12:01.368Z,60.06
2018-02-19T11:15:03.326Z,60.65
2018-02-19T11:18:05.332Z,59.62
2018-02-19T11:21:07.307Z,59.51
2018-02-19T11:24:09.284Z,60.56
2018-02-19T11:27:11.303Z,58.86
2018-02-19T11:30:13.414Z,59.08
2018-02-19T11:33:15.418Z,59.04
2018-02-19T11:36:17.339Z,58.84
2018-02-19T11:39:41.461Z,59.16
2018-02-19T11:42:44.176Z,58.83
2018-02-19T11:45:46.158Z,58.86
2018-02-19T11:48:48.114Z,59.13
2018-02-19T11:51:50.962Z,58.90
2018-02-19T11:54:52.950Z,58.36
2018-02-19T11:57:55.040Z,58.62
2018-02-19T12:00:56.981Z,58.96
2018-02-19T12:03:58.975Z,59.14
2018-02-19T12:07:00.942Z,58.70
2018-02-19T12:10:02.906Z,58.28
2018-02-19T12:13:04.880Z,58.20
2018-02-19T12:16:06.841Z,57.79
2018-02-19T12:19:08.782Z,57.78
2018-02-19T12:22:10.759Z,58.32
2018-02-19T12:25:12.734Z,58.17
2018-02-19T12:28:14.729Z,58.96
2018-02-19T12:31:16.746Z,58.10
2018-02-19T12:34:18.739Z,57.74
2018-02-19T12:37:20.703Z,58.30
2018-02-19T12:40:22.670Z,58.16
2018-02-19T12:43:24.644Z,58.20
2018-02-19T12:49:58.379Z,58.89
2018-02-19T12:53:00.485Z,58.76
2018-02-19T12:56:02.478Z,57.67
2018-02-19T12:59:04.691Z,56.69
2018-02-19T13:02:06.639Z,57.32
2018-02-19T13:05:10.358Z,57.35
2018-02-19T13:08:12.350Z,57.22
2018-02-19T13:11:14.280Z,58.07
2018-02-19T13:14:16.259Z,58.14
2018-02-19T13:17:18.211Z,58.16
2018-02-19T13:20:20.184Z,58.26
2018-02-19T13:23:22.140Z,58.67
2018-02-19T13:26:24.093Z,57.99
2018-02-19T13:29:27.305Z,58.06
2018-02-19T13:32:29.298Z,58.57
2018-02-19T13:35:31.312Z,58.79
2018-02-19T13:38:33.325Z,58.65
2018-02-19T13:41:35.266Z,58.72
2018-02-19T13:44:37.350Z,58.55
2018-02-19T13:47:39.317Z,58.37
2018-02-19T13:50:41.278Z,58.31
2018-02-19T13:53:43.263Z,58.67
2018-02-19T13:56:45.210Z,58.61
2018-02-19T13:59:47.166Z,58.53
2018-02-19T14:02:49.145Z,59.02
2018-02-19T14:05:51.115Z,59.33
2018-02-19T14:08:53.097Z,60.00
2018-02-19T14:11:55.461Z,60.05
2018-02-19T14:14:57.410Z,59.94
2018-02-19T14:17:59.409Z,60.12
2018-02-19T14:21:01.434Z,60.32
2018-02-19T14:24:03.444Z,59.93
2018-02-19T14:27:05.377Z,60.04
2018-02-19T14:30:07.378Z,59.79
2018-02-19T14:33:09.319Z,59.87
2018-02-19T14:36:11.295Z,60.41
2018-02-19T14:39:13.224Z,60.57
2018-02-19T14:42:15.216Z,60.14
2018-02-19T14:45:17.201Z,60.07
2018-02-19T14:48:19.250Z,60.40
2018-02-19T14:51:21.237Z,60.57
2018-02-19T14:54:23.224Z,60.22
2018-02-19T14:57:26.299Z,59.64
2018-02-19T15:00:28.642Z,59.46
2018-02-19T15:03:30.631Z,60.11
2018-02-19T15:06:32.592Z,60.08
2018-02-19T15:09:34.599Z,59.64
2018-02-19T15:12:36.622Z,60.04
2018-02-19T15:15:38.579Z,60.19
2018-02-19T15:18:40.562Z,60.39
2018-02-19T15:21:42.518Z,60.17
2018-02-19T15:24:44.500Z,60.50
2018-02-19T15:27:46.445Z,60.31
2018-02-19T15:30:48.448Z,59.34
2018-02-19T15:33:50.372Z,58.94
2018-02-19T15:36:52.296Z,59.34
2018-02-19T15:39:54.338Z,59.57
2018-02-19T15:42:57.487Z,59.53
2018-02-19T15:45:59.494Z,59.46
2018-02-19T15:49:01.453Z,59.63
2018-02-19T15:52:03.445Z,59.79
2018-02-19T15:55:05.353Z,58.99
2018-02-19T15:58:07.360Z,59.34
2018-02-19T16:01:09.300Z,59.61
2018-02-19T16:04:11.294Z,59.01
2018-02-19T16:07:13.347Z,60.18
2018-02-19T16:10:15.329Z,59.81
2018-02-19T16:13:17.438Z,60.17
2018-02-19T16:16:19.520Z,59.31
2018-02-19T16:19:21.543Z,60.02
2018-02-19T16:22:23.594Z,60.57
2018-02-19T16:25:25.657Z,59.50
2018-02-19T16:28:27.714Z,60.01
2018-02-19T16:31:29.701Z,60.64
2018-02-19T16:34:31.662Z,60.24
2018-02-19T16:37:33.621Z,60.18
2018-02-19T16:40:35.626Z,60.01
2018-02-19T16:43:37.670Z,60.20
2018-02-19T16:46:39.855Z,60.50
2018-02-19T16:49:41.905Z,60.82
2018-02-19T16:52:43.863Z,61.09
2018-02-19T16:55:45.812Z,60.78
2018-02-19T16:58:47.739Z,60.38
2018-02-19T17:01:50.161Z,60.49
2018-02-19T17:04:52.213Z,61.20
2018-02-19T17:07:54.154Z,60.45
2018-02-19T17:10:56.650Z,59.85
2018-02-19T17:13:58.633Z,60.06
2018-02-19T17:17:00.610Z,60.09
2018-02-19T17:20:02.586Z,59.67
2018-02-19T17:23:04.564Z,59.88
2018-02-19T17:26:06.537Z,60.45
2018-02-19T17:29:08.474Z,61.46
2018-02-19T17:32:10.553Z,61.07
2018-02-19T17:35:12.569Z,61.34
2018-02-19T17:38:15.007Z,61.53
2018-02-19T17:41:16.941Z,61.30
2018-02-19T17:44:18.930Z,60.36
2018-02-19T17:47:20.879Z,59.90
2018-02-19T17:50:22.885Z,59.61
2018-02-19T17:53:24.781Z,60.47
2018-02-19T17:56:28.249Z,59.97
2018-02-19T17:59:30.177Z,60.39
2018-02-19T18:02:32.161Z,60.62
2018-02-19T18:05:34.129Z,60.46
2018-02-19T18:08:36.089Z,60.71
2018-02-19T18:11:38.054Z,60.71
2018-02-19T18:14:40.017Z,60.65
2018-02-19T18:17:42.015Z,60.47
2018-02-19T18:20:44.012Z,59.80
2018-02-19T18:23:46.004Z,59.99
2018-02-19T18:26:47.966Z,60.02
2018-02-19T18:29:49.931Z,60.14
2018-02-19T18:32:51.925Z,60.45
2018-02-19T18:35:54.327Z,60.60
2018-02-19T18:38:57.467Z,60.86
2018-02-19T18:41:59.458Z,61.92
2018-02-19T18:45:01.429Z,61.16
2018-02-19T18:48:03.510Z,61.20
2018-02-19T18:51:05.641Z,60.95
2018-02-19T18:54:07.614Z,61.69
2018-02-19T18:57:09.679Z,61.56
2018-02-19T19:00:11.647Z,61.71
2018-02-19T19:03:13.750Z,61.75
2018-02-19T19:06:15.685Z,61.46
2018-02-19T19:09:17.655Z,61.47
2018-02-19T19:12:19.643Z,62.04
2018-02-19T19:15:21.649Z,62.27
2018-02-19T19:18:23.562Z,61.37
2018-02-19T19:21:26.671Z,61.70
2018-02-19T19:24:28.625Z,61.20
2018-02-19T19:27:30.709Z,60.47
2018-02-19T19:30:32.665Z,60.10
2018-02-19T19:33:34.680Z,60.24
2018-02-19T19:36:36.715Z,60.52
2018-02-19T19:39:38.679Z,60.21
2018-02-19T19:42:40.614Z,60.27
2018-02-19T19:45:42.566Z,60.65
2018-02-19T19:48:44.577Z,60.95
2018-02-19T19:51:46.526Z,60.30
2018-02-19T19:54:48.520Z,59.43
2018-02-19T19:57:50.884Z,59.03
2018-02-19T20:00:52.814Z,60.68
2018-02-19T20:03:54.782Z,60.90
2018-02-19T20:06:57.449Z,60.44
2018-02-19T20:12:41.915Z,61.06
2018-02-19T20:15:45.386Z,61.23
2018-02-19T20:18:48.614Z,61.04
2018-02-19T20:21:51.925Z,60.65
2018-02-19T20:24:55.251Z,60.86
2018-02-19T20:27:58.420Z,61.06
2018-02-19T20:31:01.637Z,60.76
2018-02-19T20:34:04.934Z,60.50
2018-02-19T20:37:08.213Z,60.80
2018-02-19T20:40:11.415Z,60.35
2018-02-19T20:43:14.662Z,60.54
2018-02-19T20:46:17.968Z,61.04
2018-02-19T20:49:21.124Z,60.94
2018-02-19T20:52:24.356Z,60.94
2018-02-19T20:55:28.674Z,60.30
2018-02-19T20:58:32.007Z,60.25
2018-02-19T21:01:35.211Z,60.62
2018-02-19T21:04:38.401Z,61.06
2018-02-19T21:07:41.605Z,61.08
2018-02-19T21:10:44.860Z,60.24
2018-02-19T21:13:48.055Z,59.68
2018-02-19T21:16:51.280Z,58.98
2018-02-19T21:19:54.451Z,59.35
2018-02-19T21:22:58.910Z,60.16
2018-02-19T21:26:02.258Z,59.92
2018-02-19T21:29:05.572Z,60.15
2018-02-19T21:32:08.812Z,58.16
2018-02-19T21:35:12.058Z,58.74
2018-02-19T21:38:15.360Z,59.05
2018-02-19T21:41:18.539Z,59.14
2018-02-19T21:44:21.865Z,58.96
2018-02-19T21:47:25.303Z,58.15
2018-02-19T21:50:28.535Z,59.19
2018-02-19T21:53:31.850Z,59.14
2018-02-19T21:56:35.021Z,58.88
2018-02-19T21:59:38.882Z,59.10
2018-02-19T22:02:42.092Z,58.65
2018-02-19T22:05:45.649Z,58.76
2018-02-19T22:08:48.933Z,58.59
2018-02-19T22:11:52.246Z,58.29
2018-02-19T22:14:55.538Z,58.27
2018-02-19T22:17:58.826Z,59.20
2018-02-19T22:21:02.139Z,59.88
2018-02-19T22:24:05.443Z,60.90
2018-02-19T22:27:08.759Z,61.09
2018-02-19T22:30:12.031Z,60.95
2018-02-19T22:33:15.340Z,61.26
2018-02-19T22:36:18.506Z,61.52
2018-02-19T22:39:21.757Z,61.70
2018-02-19T22:42:25.026Z,62.18
2018-02-19T22:45:28.305Z,62.39
2018-02-19T22:48:31.599Z,62.86
2018-02-19T22:51:34.920Z,63.05
2018-02-19T22:54:38.209Z,63.38
2018-02-19T22:57:41.503Z,63.30
2018-02-19T23:00:44.792Z,63.71
2018-02-19T23:03:48.079Z,63.89
2018-02-19T23:06:51.310Z,64.18
2018-02-19T23:09:54.510Z,64.58
2018-02-19T23:12:57.770Z,64.90
2018-02-19T23:16:01.034Z,64.90
2018-02-19T23:19:04.275Z,64.89
2018-02-19T23:22:07.568Z,65.15
2018-02-19T23:25:10.860Z,65.40
2018-02-19T23:28:14.154Z,65.49
2018-02-19T23:31:17.617Z,65.23
2018-02-19T23:34:20.863Z,65.26
2018-02-19T23:37:24.226Z,64.98
2018-02-19T23:40:27.496Z,65.07
2018-02-19T23:43:30.773Z,65.12
2018-02-19T23:46:34.064Z,64.82
2018-02-19T23:49:37.344Z,65.85
2018-02-19T23:52:40.612Z,66.26
2018-02-19T23:55:43.945Z,65.89
2018-02-19T23:58:47.251Z,65.65
